Time;durP1;ratioP1;P1;durP2;ratioP2;P2;SDS_P1;SDS_P2;PMS_P1;PMS_P2;Temp;Humidity;BMP_temperature;BMP_pressure;BME280_temperature;BME280_humidity;BME280_pressure;Samples;Min_cycle;Max_cycle;Signal;HPM_P1;HPM_P2
2024/01/09 00:00:32;;;;;;;18.13;8.65;;;;;;;-3.79;67.94;99885.81;4980001;28;20039;-95
2024/01/09 00:02:58;;;;;;;12.95;7.60;;;;;;;-3.89;68.46;99897.31;4978624;28;20030;-94
2024/01/09 00:05:25;;;;;;;15.63;8.25;;;;;;;-3.95;68.20;99884.78;4987861;28;20026;-96
2024/01/09 00:07:58;;;;;;;14.75;7.72;;;;;;;-3.66;67.80;99933.53;5012885;28;20026;-96
2024/01/09 00:10:35;;;;;;;15.25;7.72;;;;;;;-3.74;68.02;99923.81;4995497;28;20034;-96
2024/01/09 00:13:01;;;;;;;14.77;7.63;;;;;;;-4.00;69.22;99887.09;5003216;28;20022;-93
2024/01/09 00:15:28;;;;;;;11.93;7.60;;;;;;;-3.85;67.16;99892.56;4983066;28;20018;-94
2024/01/09 00:17:54;;;;;;;14.07;7.53;;;;;;;-4.02;67.53;99899.59;4982094;28;20176;-94
2024/01/09 00:20:20;;;;;;;16.42;7.20;;;;;;;-4.07;66.46;99918.50;4982820;28;20077;-93
2024/01/09 00:22:46;;;;;;;13.18;7.40;;;;;;;-4.14;66.73;99919.28;4982961;28;20026;-93
2024/01/09 00:25:11;;;;;;;18.60;7.75;;;;;;;-3.96;66.42;99943.66;4982362;28;20010;-93
2024/01/09 00:27:37;;;;;;;13.38;7.07;;;;;;;-4.48;68.07;99939.34;4982912;28;20668;-93
2024/01/09 00:30:03;;;;;;;16.58;7.35;;;;;;;-4.43;69.14;99933.63;4982426;28;20026;-90
2024/01/09 00:32:29;;;;;;;13.25;7.57;;;;;;;-4.36;68.68;99949.59;4980913;28;20045;-91
2024/01/09 00:34:54;;;;;;;15.05;7.20;;;;;;;-4.80;69.09;99921.59;4981569;28;20019;-90
2024/01/09 00:37:20;;;;;;;15.65;7.55;;;;;;;-4.74;69.34;99944.63;4980697;28;20022;-90
2024/01/09 00:39:45;;;;;;;16.75;8.38;;;;;;;-4.65;70.34;99955.19;4983119;28;20092;-90
2024/01/09 00:42:11;;;;;;;12.93;7.22;;;;;;;-4.43;69.51;99966.97;5000256;28;20365;-90
2024/01/09 00:44:36;;;;;;;16.95;8.63;;;;;;;-4.44;69.76;99953.00;4983205;28;20108;-93
2024/01/09 00:47:02;;;;;;;13.95;7.90;;;;;;;-4.42;69.48;99979.13;4983919;28;20145;-90
2024/01/09 00:49:28;;;;;;;16.45;8.55;;;;;;;-4.44;69.21;99952.16;4984221;28;20033;-89
2024/01/09 00:51:53;;;;;;;16.38;8.57;;;;;;;-4.30;69.67;99978.69;4983349;28;20041;-90
2024/01/09 00:54:19;;;;;;;16.08;8.30;;;;;;;-4.23;68.60;99963.13;4983837;28;20014;-90
2024/01/09 00:56:45;;;;;;;16.65;8.10;;;;;;;-4.44;68.90;99968.78;4991142;28;20036;-90
2024/01/09 00:59:10;;;;;;;17.95;8.88;;;;;;;-4.18;67.62;99988.94;4989640;28;20054;-90
2024/01/09 01:01:36;;;;;;;15.57;8.05;;;;;;;-4.58;68.96;99953.59;5004119;28;20530;-93
2024/01/09 01:04:01;;;;;;;18.35;8.30;;;;;;;-4.20;69.67;99991.72;4987290;28;20032;-93
2024/01/09 01:06:27;;;;;;;16.52;8.13;;;;;;;-4.09;69.14;99994.09;4988475;28;20029;-93
2024/01/09 01:08:52;;;;;;;15.82;8.50;;;;;;;-4.48;68.42;99959.56;4987751;28;20055;-94
2024/01/09 01:11:18;;;;;;;14.10;8.77;;;;;;;-4.52;68.51;99955.59;4989191;28;20017;-94
2024/01/09 01:13:44;;;;;;;15.93;8.55;;;;;;;-4.42;68.93;99968.59;5004184;28;20025;-94
2024/01/09 01:16:09;;;;;;;16.77;8.43;;;;;;;-4.54;68.38;99975.97;4986751;28;20037;-94
2024/01/09 01:18:35;;;;;;;15.25;7.93;;;;;;;-4.56;69.40;99970.03;5020951;28;20029;-95
2024/01/09 01:21:01;;;;;;;17.58;8.32;;;;;;;-4.30;70.21;99988.38;4988654;28;20040;-94
2024/01/09 01:23:26;;;;;;;14.65;8.25;;;;;;;-4.31;68.93;99963.91;4987061;28;20021;-94
2024/01/09 01:25:52;;;;;;;18.52;8.73;;;;;;;-4.12;67.96;99988.31;5003737;28;20025;-94
2024/01/09 01:28:18;;;;;;;18.63;8.57;;;;;;;-4.22;67.98;99979.72;5003988;28;20388;-94
2024/01/09 01:30:43;;;;;;;18.13;8.23;;;;;;;-4.20;67.65;99996.97;5003184;28;20087;-94
2024/01/09 01:33:09;;;;;;;16.35;8.25;;;;;;;-4.10;67.20;100004.75;5004527;28;20106;-93
2024/01/09 01:35:34;;;;;;;19.27;8.70;;;;;;;-4.08;67.42;100018.56;5003303;28;20061;-95
2024/01/09 01:38:00;;;;;;;14.88;7.95;;;;;;;-4.09;65.86;100017.75;5003712;28;20096;-94
2024/01/09 01:40:25;;;;;;;15.82;8.02;;;;;;;-4.15;66.40;99988.59;5003117;28;20057;-95
2024/01/09 01:42:51;;;;;;;14.70;6.65;;;;;;;-4.43;64.54;100003.78;4987558;28;20025;-94
2024/01/09 01:45:21;;;;;;;14.73;6.90;;;;;;;-4.48;64.51;99998.97;4987575;28;20025;-95
2024/01/09 01:47:47;;;;;;;14.20;6.93;;;;;;;-4.51;65.06;99994.03;4987531;28;20458;-94
2024/01/09 01:50:13;;;;;;;13.13;7.53;;;;;;;-4.34;64.24;100015.97;5002031;28;20029;-95
2024/01/09 01:52:39;;;;;;;16.65;6.50;;;;;;;-4.35;63.64;100016.97;5003518;28;20034;-92
2024/01/09 01:55:05;;;;;;;12.38;6.72;;;;;;;-4.45;63.62;100008.34;5003806;28;20021;-93
2024/01/09 01:57:31;;;;;;;16.50;7.15;;;;;;;-4.41;63.89;100028.91;5020089;28;20029;-94
2024/01/09 01:59:57;;;;;;;13.45;6.25;;;;;;;-4.45;63.71;100011.81;5003692;28;20022;-94
2024/01/09 02:02:23;;;;;;;12.98;6.70;;;;;;;-4.57;62.36;100003.34;5003190;28;20029;-94
2024/01/09 02:04:48;;;;;;;12.15;6.03;;;;;;;-4.70;64.03;100003.75;5019782;28;20032;-93
2024/01/09 02:07:14;;;;;;;11.73;6.07;;;;;;;-4.71;64.36;100007.38;4987112;28;20533;-94
2024/01/09 02:09:40;;;;;;;11.90;6.78;;;;;;;-4.74;64.05;100012.09;4987087;28;20024;-94
2024/01/09 02:12:06;;;;;;;10.57;5.50;;;;;;;-4.78;62.86;100011.59;5004601;28;20036;-94
2024/01/09 02:14:31;;;;;;;12.27;6.00;;;;;;;-4.67;63.22;100019.22;4987140;28;20395;-94
2024/01/09 02:16:57;;;;;;;11.32;6.70;;;;;;;-4.70;62.67;100040.53;5004041;28;20029;-94
2024/01/09 02:19:22;;;;;;;13.65;6.25;;;;;;;-4.79;63.08;100023.09;4987554;28;20021;-93
2024/01/09 02:21:50;;;;;;;11.85;5.35;;;;;;;-4.71;62.73;100028.41;5003912;28;20450;-95
2024/01/09 02:24:17;;;;;;;12.10;7.00;;;;;;;-4.96;63.87;100014.25;4988443;28;20031;-94
2024/01/09 02:26:47;;;;;;;10.85;6.88;;;;;;;-4.89;63.43;100030.22;4987396;28;20097;-95
2024/01/09 02:29:13;;;;;;;10.98;6.60;;;;;;;-4.84;62.46;100027.13;5004071;28;20105;-95
2024/01/09 02:31:38;;;;;;;13.52;7.10;;;;;;;-4.58;63.62;100054.25;5021578;28;20034;-94
2024/01/09 02:34:04;;;;;;;14.57;6.82;;;;;;;-4.87;63.57;100031.72;5003392;28;20017;-95
2024/01/09 02:36:29;;;;;;;16.13;7.25;;;;;;;-4.75;64.60;100063.81;5003841;28;20031;-95
2024/01/09 02:38:55;;;;;;;9.50;5.97;;;;;;;-4.78;64.68;100056.22;5003875;28;20083;-94
2024/01/09 02:41:21;;;;;;;12.65;6.18;;;;;;;-5.00;64.23;100035.69;5002813;28;20083;-94
2024/01/09 02:43:46;;;;;;;13.75;6.70;;;;;;;-4.91;64.85;100030.38;5019705;28;20103;-95
2024/01/09 02:46:12;;;;;;;20.77;7.13;;;;;;;-4.87;65.15;100050.09;5003226;28;20472;-95
2024/01/09 02:48:37;;;;;;;17.88;7.10;;;;;;;-4.74;65.33;100048.88;5003205;28;20029;-94
2024/01/09 02:51:03;;;;;;;11.30;6.65;;;;;;;-4.71;65.42;100049.41;5003673;28;20022;-94
2024/01/09 02:53:29;;;;;;;11.48;6.28;;;;;;;-4.68;64.65;100041.22;5018165;28;20030;-95
2024/01/09 02:55:54;;;;;;;14.10;7.60;;;;;;;-4.63;64.20;100048.63;4987136;28;20426;-94
2024/01/09 02:58:20;;;;;;;9.93;5.72;;;;;;;-4.66;63.69;100056.81;4987348;28;20036;-95
2024/01/09 03:00:45;;;;;;;12.82;6.88;;;;;;;-4.84;63.93;100045.53;5003051;28;20026;-94
2024/01/09 03:03:11;;;;;;;10.93;7.05;;;;;;;-4.78;64.50;100050.16;5002720;28;20084;-92
2024/01/09 03:05:37;;;;;;;9.57;5.68;;;;;;;-4.61;63.21;100051.94;5002107;28;20026;-94
2024/01/09 03:08:03;;;;;;;12.15;7.05;;;;;;;-4.56;64.75;100068.06;5003711;28;20026;-94
2024/01/09 03:10:28;;;;;;;13.30;7.28;;;;;;;-4.64;65.75;100060.13;4987432;28;20017;-93
2024/01/09 03:12:54;;;;;;;14.43;7.47;;;;;;;-4.72;63.99;100062.69;5002485;28;20028;-94
2024/01/09 03:15:19;;;;;;;13.45;6.75;;;;;;;-4.70;64.05;100071.25;5003134;28;20022;-95
2024/01/09 03:17:45;;;;;;;12.90;6.82;;;;;;;-4.98;64.34;100079.22;5002303;28;20466;-93
2024/01/09 03:20:10;;;;;;;10.55;6.50;;;;;;;-4.61;63.86;100109.72;5003671;28;20026;-94
2024/01/09 03:22:36;;;;;;;11.32;6.10;;;;;;;-4.57;64.03;100091.88;4987114;28;20034;-94
2024/01/09 03:25:02;;;;;;;16.55;7.53;;;;;;;-4.63;64.93;100092.47;4986397;28;20487;-94
2024/01/09 03:27:27;;;;;;;13.93;7.47;;;;;;;-4.69;64.77;100089.50;5003840;28;20047;-95
2024/01/09 03:29:53;;;;;;;13.13;6.78;;;;;;;-4.58;63.97;100108.63;5003508;28;20021;-94
2024/01/09 03:32:19;;;;;;;11.38;6.75;;;;;;;-4.63;65.40;100108.25;4986493;28;20074;-95
2024/01/09 03:34:44;;;;;;;11.02;6.45;;;;;;;-4.56;63.42;100120.63;4987701;28;20079;-94
2024/01/09 03:37:11;;;;;;;9.15;6.18;;;;;;;-4.32;63.85;100138.38;4987382;28;20028;-94
2024/01/09 03:39:36;;;;;;;15.40;7.40;;;;;;;-4.54;64.61;100120.47;5003855;28;20128;-94
2024/01/09 03:42:02;;;;;;;14.43;7.05;;;;;;;-4.58;64.51;100121.75;5006317;28;20056;-95
2024/01/09 03:44:28;;;;;;;14.65;7.38;;;;;;;-4.52;65.90;100129.03;5024910;28;20479;-94
2024/01/09 03:46:54;;;;;;;10.23;6.43;;;;;;;-4.35;65.20;100120.28;5010841;28;20029;-95
2024/01/09 03:49:19;;;;;;;10.45;6.03;;;;;;;-4.26;63.93;100124.63;5006316;28;20029;-95
2024/01/09 03:51:45;;;;;;;11.60;6.50;;;;;;;-4.29;62.67;100097.81;5006609;28;20036;-94
2024/01/09 03:54:11;;;;;;;13.07;6.97;;;;;;;-4.22;62.99;100100.66;4990711;28;20041;-95
2024/01/09 03:56:36;;;;;;;10.20;6.20;;;;;;;-4.07;61.94;100131.50;4989684;28;20052;-93
2024/01/09 03:59:02;;;;;;;9.90;6.55;;;;;;;-4.41;62.73;100118.28;5006526;28;20036;-94
2024/01/09 04:01:27;;;;;;;12.00;6.22;;;;;;;-4.27;63.09;100162.41;5008658;28;20036;-93
2024/01/09 04:03:53;;;;;;;9.38;5.07;;;;;;;-4.17;62.35;100175.47;5006597;28;20026;-96
2024/01/09 04:06:18;;;;;;;12.45;6.32;;;;;;;-4.08;61.55;100181.63;5008980;28;20021;-94
2024/01/09 04:08:44;;;;;;;12.60;6.38;;;;;;;-4.45;62.88;100169.50;5009384;28;20094;-93
2024/01/09 04:11:09;;;;;;;12.30;5.78;;;;;;;-4.42;62.73;100182.34;5006026;28;20082;-95
2024/01/09 04:16:57;;;;;;;12.80;6.25;;;;;;;-4.35;63.15;100179.94;5039732;28;20040;-94
2024/01/09 04:19:22;;;;;;;11.50;6.53;;;;;;;-4.29;62.65;100181.97;5006199;28;20029;-94
2024/01/09 04:21:48;;;;;;;10.60;6.50;;;;;;;-4.36;61.51;100147.53;5004990;28;20036;-92
2024/01/09 04:24:19;;;;;;;11.90;6.38;;;;;;;-4.31;62.01;100157.63;5008747;28;20056;-96
2024/01/09 04:26:45;;;;;;;14.93;7.07;;;;;;;-4.10;62.02;100191.47;5008402;28;20025;-94
2024/01/09 04:29:10;;;;;;;11.63;6.60;;;;;;;-4.29;62.46;100156.47;4989893;28;20029;-94
2024/01/09 04:31:36;;;;;;;9.27;5.75;;;;;;;-4.17;60.76;100169.38;5006267;28;20030;-94
2024/01/09 04:34:02;;;;;;;9.98;5.88;;;;;;;-4.42;61.56;100203.38;4988405;28;20095;-95
2024/01/09 04:36:27;;;;;;;14.60;7.13;;;;;;;-4.38;62.58;100223.13;5006441;28;20028;-93
2024/01/09 04:38:59;;;;;;;12.82;6.90;;;;;;;-4.53;62.50;100243.81;5006059;28;20026;-94
2024/01/09 04:41:25;;;;;;;17.08;6.38;;;;;;;-4.42;62.79;100284.00;5004566;28;20084;-95
2024/01/09 04:43:50;;;;;;;10.77;6.55;;;;;;;-4.45;62.34;100276.44;4989925;28;20033;-94
2024/01/09 04:46:16;;;;;;;10.80;5.90;;;;;;;-4.21;61.77;100276.69;5005031;28;20056;-94
2024/01/09 04:48:41;;;;;;;12.07;6.40;;;;;;;-4.07;64.04;100280.56;5005308;28;20419;-94
2024/01/09 04:51:07;;;;;;;11.50;6.25;;;;;;;-4.13;62.60;100278.53;5004545;28;20028;-95
2024/01/09 04:53:34;;;;;;;15.57;6.80;;;;;;;-4.17;62.54;100272.78;5003872;28;20087;-96
2024/01/09 04:56:00;;;;;;;13.40;7.10;;;;;;;-4.20;61.91;100265.16;5021716;28;20021;-94
2024/01/09 04:58:26;;;;;;;13.60;6.82;;;;;;;-4.06;62.29;100283.03;5006044;28;20479;-95
2024/01/09 05:00:51;;;;;;;15.38;7.07;;;;;;;-4.08;62.97;100256.06;5004874;28;20017;-93
2024/01/09 05:03:17;;;;;;;14.55;7.05;;;;;;;-4.02;61.37;100259.09;5005816;28;20021;-93
2024/01/09 05:05:42;;;;;;;14.30;7.88;;;;;;;-4.16;62.81;100271.78;5021712;28;20025;-93
2024/01/09 05:08:11;;;;;;;13.82;7.47;;;;;;;-4.37;62.76;100272.06;5006000;28;20044;-95
2024/01/09 05:10:37;;;;;;;12.25;6.93;;;;;;;-4.22;62.17;100298.66;4989238;28;20022;-91
2024/01/09 05:13:02;;;;;;;12.63;7.07;;;;;;;-4.33;62.63;100283.13;4996237;28;20026;-90
2024/01/09 05:15:28;;;;;;;14.70;6.55;;;;;;;-4.26;60.53;100277.09;4998285;28;20021;-91
2024/01/09 05:17:56;;;;;;;12.38;7.43;;;;;;;-4.43;60.93;100295.50;5002359;28;20036;-90
2024/01/09 05:20:21;;;;;;;12.65;6.28;;;;;;;-4.27;60.77;100295.69;4992954;28;20405;-90
2024/01/09 05:22:47;;;;;;;16.55;7.43;;;;;;;-4.12;62.20;100332.78;5003074;28;20090;-90
2024/01/09 05:25:13;;;;;;;11.40;6.80;;;;;;;-4.35;59.82;100306.09;4995885;28;20013;-90
2024/01/09 05:27:41;;;;;;;10.80;6.43;;;;;;;-4.22;58.97;100317.06;4998873;28;20036;-91
2024/01/09 05:30:21;;;;;;;9.13;6.07;;;;;;;-4.32;59.45;100332.91;4999829;28;20026;-95
2024/01/09 05:33:05;;;;;;;11.32;6.28;;;;;;;-4.45;59.88;100303.53;4986408;28;20026;-95
2024/01/09 05:35:30;;;;;;;17.98;6.82;;;;;;;-4.40;60.59;100289.94;4988505;28;20056;-91
2024/01/09 05:37:59;;;;;;;13.45;7.05;;;;;;;-4.16;59.36;100305.16;5005357;28;20026;-93
2024/01/09 05:40:25;;;;;;;10.63;6.15;;;;;;;-4.16;59.74;100295.44;4994244;28;20053;-92
2024/01/09 05:42:52;;;;;;;13.27;8.02;;;;;;;-4.25;60.10;100306.88;4999496;28;20515;-94
2024/01/09 05:45:17;;;;;;;12.55;6.88;;;;;;;-4.23;59.43;100310.19;5002594;28;20021;-94
2024/01/09 05:47:46;;;;;;;17.60;8.45;;;;;;;-4.17;59.71;100298.22;5008128;28;20036;-95
2024/01/09 05:50:14;;;;;;;13.32;7.47;;;;;;;-4.00;59.68;100315.00;5005546;28;20507;-94
2024/01/09 05:52:39;;;;;;;12.63;6.50;;;;;;;-4.10;58.43;100300.09;5023937;28;20017;-94
2024/01/09 05:55:06;;;;;;;10.93;5.80;;;;;;;-4.11;58.92;100303.72;5002057;28;20108;-90
2024/01/09 05:57:31;;;;;;;10.65;6.60;;;;;;;-3.91;60.26;100341.22;5000856;28;20112;-89
2024/01/09 05:59:57;;;;;;;13.13;7.18;;;;;;;-4.11;59.34;100326.53;4992069;28;20092;-91
2024/01/09 06:02:23;;;;;;;14.52;6.95;;;;;;;-4.26;59.80;100316.53;4992475;28;20483;-89
2024/01/09 06:04:49;;;;;;;13.20;7.55;;;;;;;-4.26;61.55;100347.28;4993295;28;20460;-90
2024/01/09 06:07:18;;;;;;;13.00;7.10;;;;;;;-4.02;61.01;100372.19;5013506;28;20013;-91
2024/01/09 06:09:45;;;;;;;14.23;7.70;;;;;;;-4.35;61.21;100340.28;4990172;28;20032;-88
2024/01/09 06:12:11;;;;;;;10.77;6.68;;;;;;;-4.33;61.75;100340.97;4990703;28;20514;-93
2024/01/09 06:14:36;;;;;;;13.85;7.40;;;;;;;-4.38;60.29;100344.03;4988687;28;20026;-92
2024/01/09 06:17:02;;;;;;;14.55;7.53;;;;;;;-4.40;60.89;100335.47;5003345;28;20033;-91
2024/01/09 06:19:28;;;;;;;11.15;6.15;;;;;;;-4.11;60.49;100368.63;5026450;28;20540;-94
2024/01/09 06:22:08;;;;;;;15.68;7.32;;;;;;;-4.17;60.87;100345.53;5004494;28;20033;-95
2024/01/09 06:28:08;;;;;;;12.38;6.68;;;;;;;-4.02;60.14;100364.28;5051868;28;20446;-95
2024/01/09 06:30:39;;;;;;;16.08;6.57;;;;;;;-4.03;58.98;100358.19;5006857;28;20037;-94
2024/01/09 06:33:05;;;;;;;14.68;7.05;;;;;;;-4.02;58.71;100356.41;5006784;28;20064;-91
2024/01/09 06:35:31;;;;;;;10.07;6.28;;;;;;;-4.05;58.69;100360.13;5004068;28;20026;-91
2024/01/09 06:37:56;;;;;;;13.27;6.68;;;;;;;-4.05;59.37;100336.47;4989326;28;20085;-94
2024/01/09 06:40:24;;;;;;;11.07;6.70;;;;;;;-4.06;59.15;100363.75;4987279;28;20046;-96
2024/01/09 06:42:59;;;;;;;20.58;9.35;;;;;;;-4.07;57.59;100359.47;5037344;28;20040;-93
2024/01/09 06:45:27;;;;;;;12.25;6.93;;;;;;;-3.93;58.00;100369.47;5003092;28;20018;-93
2024/01/09 06:48:03;;;;;;;12.52;7.03;;;;;;;-3.81;57.51;100372.72;5005264;28;20029;-94
2024/01/09 06:50:31;;;;;;;14.20;6.60;;;;;;;-3.79;57.70;100381.28;5004556;28;20022;-93
2024/01/09 06:52:57;;;;;;;10.95;6.93;;;;;;;-3.88;57.18;100366.38;5002794;28;20036;-94
2024/01/09 06:55:37;;;;;;;11.43;7.05;;;;;;;-3.58;57.19;100374.88;5005600;28;20033;-93
2024/01/09 06:58:03;;;;;;;21.55;11.32;;;;;;;-3.51;57.28;100384.66;5022809;28;20038;-94
2024/01/09 07:00:38;;;;;;;13.60;6.93;;;;;;;-3.79;56.19;100389.19;4963681;28;20042;-92
2024/01/09 07:03:06;;;;;;;11.43;7.35;;;;;;;-3.61;57.33;100391.81;4949192;29;20056;-94
2024/01/09 07:05:51;;;;;;;10.32;5.88;;;;;;;-3.66;57.26;100407.22;4959848;28;20058;-93
2024/01/09 07:15:24;;;;;;;15.07;6.72;;;;;;;-3.64;56.88;100418.41;4962210;28;20069;-96
2024/01/09 07:17:54;;;;;;;10.52;6.13;;;;;;;-3.64;56.40;100426.31;4963849;28;20110;-95
2024/01/09 07:20:29;;;;;;;11.48;6.95;;;;;;;-3.49;57.49;100445.84;4977815;28;20058;-92
2024/01/09 07:22:55;;;;;;;10.55;6.05;;;;;;;-3.43;57.49;100447.06;4959699;28;20214;-95
2024/01/09 07:31:53;;;;;;;;;;;;;;;;;;;;;
2024/01/09 07:36:54;;;;;;;10.90;6.47;;;;;;;-3.10;56.36;100469.25;5318756;22;20467;-94
2024/01/09 07:39:32;;;;;;;10.55;7.18;;;;;;;-3.61;56.56;100451.50;5000460;28;20024;-96
2024/01/09 07:44:42;;;;;;;9.35;5.80;;;;;;;-3.91;59.08;100448.25;5017876;28;20050;-95
2024/01/09 07:47:09;;;;;;;9.52;5.70;;;;;;;-3.79;57.96;100468.13;4984638;28;20029;-93
2024/01/09 07:49:38;;;;;;;9.52;6.13;;;;;;;-3.62;57.90;100453.31;4983585;28;20030;-95
2024/01/09 07:52:08;;;;;;;10.38;6.53;;;;;;;-3.48;56.70;100451.97;4969958;28;20393;-93
2024/01/09 07:54:37;;;;;;;11.10;5.72;;;;;;;-3.63;57.72;100470.09;4962530;28;20026;-92
2024/01/09 07:57:10;;;;;;;40.22;14.52;;;;;;;-3.59;56.33;100470.59;4966415;28;20030;-93
2024/01/09 08:00:34;;;;;;;12.43;8.13;;;;;;;-3.48;57.55;100463.31;4967644;28;20026;-94
2024/01/09 08:03:21;;;;;;;;;;;;;;;;;;;;;
2024/01/09 08:05:47;;;;;;;12.43;5.78;;;;;;;-3.48;56.61;100459.88;5003344;28;20117;-92
2024/01/09 08:08:12;;;;;;;10.15;5.82;;;;;;;-3.38;55.89;100484.31;4977194;28;20125;-89
2024/01/09 08:13:14;;;;;;;13.55;7.15;;;;;;;-3.14;57.49;100496.03;5165635;22;20056;-95
2024/01/09 08:16:14;;;;;;;12.45;6.63;;;;;;;-3.06;56.58;100489.03;5016136;28;20120;-94
2024/01/09 08:18:42;;;;;;;14.45;8.13;;;;;;;-3.10;56.44;100498.22;5032856;28;20048;-96
2024/01/09 08:21:48;;;;;;;17.08;7.30;;;;;;;-3.00;56.61;100524.50;4992383;28;20029;-95
2024/01/09 08:27:35;;;;;;;10.82;5.43;;;;;;;-3.06;55.58;100518.00;5049044;28;20021;-95
2024/01/09 08:30:42;;;;;;;;;;;;;;;;;;;;;
2024/01/09 08:33:08;;;;;;;11.35;6.32;;;;;;;-3.02;56.07;100529.09;5034646;28;20085;-93
2024/01/09 08:35:36;;;;;;;9.38;5.68;;;;;;;-2.96;54.33;100540.84;5012629;28;20044;-93
2024/01/09 08:38:10;;;;;;;39.97;20.58;;;;;;;-2.81;55.08;100539.31;5012981;28;20036;-96
2024/01/09 08:40:38;;;;;;;42.50;20.90;;;;;;;-2.82;54.82;100550.84;5011166;28;20418;-92
2024/01/09 08:43:04;;;;;;;10.70;6.22;;;;;;;-2.95;54.93;100553.84;5009843;28;20091;-94
2024/01/09 08:45:30;;;;;;;14.23;6.55;;;;;;;-3.00;55.63;100558.75;5010026;28;20506;-94
2024/01/09 08:47:56;;;;;;;13.60;5.78;;;;;;;-3.18;53.94;100550.00;5018811;28;20021;-95
2024/01/09 08:50:21;;;;;;;15.77;6.22;;;;;;;-3.38;55.25;100565.94;5015823;28;20119;-95
2024/01/09 08:52:52;;;;;;;14.27;7.15;;;;;;;-3.35;55.39;100576.16;5011526;28;20076;-93
2024/01/09 08:55:17;;;;;;;15.88;6.90;;;;;;;-3.22;55.83;100574.97;5027811;28;20182;-92
2024/01/09 08:58:03;;;;;;;11.25;5.97;;;;;;;-3.15;55.06;100561.06;5012849;28;20025;-95
2024/01/09 09:00:29;;;;;;;12.65;5.93;;;;;;;-3.17;53.65;100554.31;5027487;28;20437;-92
2024/01/09 09:03:04;;;;;;;8.68;5.85;;;;;;;-3.11;54.36;100572.16;5012016;28;20020;-94
2024/01/09 09:05:29;;;;;;;9.07;5.45;;;;;;;-3.35;54.74;100562.19;5028426;28;20032;-93
2024/01/09 09:07:55;;;;;;;20.30;5.82;;;;;;;-3.51;55.88;100553.16;5008906;28;20072;-92
2024/01/09 09:10:21;;;;;;;8.95;5.32;;;;;;;-3.31;56.15;100553.81;5007534;28;20021;-91
2024/01/09 09:12:47;;;;;;;13.15;6.18;;;;;;;-3.27;55.48;100563.09;4995724;28;20104;-90
2024/01/09 09:15:39;;;;;;;;;;;;;;;;;;;;;
2024/01/09 09:18:11;;;;;;;9.43;5.15;;;;;;;-3.14;56.00;100573.25;4964500;28;20197;-92
2024/01/09 09:20:37;;;;;;;11.68;5.22;;;;;;;-3.10;55.98;100574.63;4965640;28;20559;-93
2024/01/09 09:23:11;;;;;;;10.82;5.47;;;;;;;-3.16;58.85;100582.28;4971844;28;20044;-94
2024/01/09 09:25:37;;;;;;;10.35;5.93;;;;;;;-3.14;57.70;100581.16;4987858;28;20113;-92
2024/01/09 09:28:03;;;;;;;8.60;5.55;;;;;;;-3.17;58.35;100559.56;4984570;28;20181;-94
2024/01/09 09:30:32;;;;;;;9.48;5.90;;;;;;;-3.13;57.48;100571.47;4970182;28;20030;-93
2024/01/09 09:32:58;;;;;;;9.50;5.10;;;;;;;-3.08;57.00;100595.53;4993189;28;20034;-93
2024/01/09 09:35:24;;;;;;;8.23;5.10;;;;;;;-3.49;58.29;100574.03;4988355;28;20112;-92
2024/01/09 09:37:58;;;;;;;12.32;6.20;;;;;;;-4.01;59.00;100563.22;4987458;28;20069;-92
2024/01/09 09:40:24;;;;;;;12.20;6.05;;;;;;;-3.52;60.03;100582.25;4984952;28;20135;-91
2024/01/09 09:42:57;;;;;;;15.05;7.70;;;;;;;-3.70;59.65;100569.03;4985547;28;20049;-94
2024/01/09 09:45:26;;;;;;;41.15;18.65;;;;;;;-3.63;60.50;100583.28;4986621;28;20078;-93
2024/01/09 09:47:56;;;;;;;11.07;6.28;;;;;;;-3.68;61.23;100594.22;4987758;28;20092;-96
2024/01/09 09:50:27;;;;;;;11.80;6.18;;;;;;;-4.06;60.83;100589.94;4971457;28;20129;-92
2024/01/09 09:52:59;;;;;;;8.77;5.15;;;;;;;-3.68;60.29;100588.94;5002702;28;20551;-91
2024/01/09 09:55:25;;;;;;;13.07;6.57;;;;;;;-3.48;57.98;100600.22;5014620;28;20032;-94
2024/01/09 09:57:51;;;;;;;17.70;5.25;;;;;;;-3.76;58.37;100577.50;5025553;28;20183;-94
2024/01/09 10:00:34;;;;;;;12.35;5.00;;;;;;;-3.61;57.92;100591.84;4994608;28;20022;-93
2024/01/09 10:03:21;;;;;;;10.00;5.40;;;;;;;-3.73;60.13;100566.69;4997129;28;20033;-93
2024/01/09 10:05:47;;;;;;;11.75;6.47;;;;;;;-3.61;59.83;100567.31;4990528;28;20062;-94
2024/01/09 10:08:12;;;;;;;11.13;5.80;;;;;;;-3.60;60.18;100582.16;4974660;28;20061;-92
2024/01/09 10:10:48;;;;;;;10.10;6.20;;;;;;;-3.57;61.24;100564.25;4987436;28;20070;-95
2024/01/09 10:13:26;;;;;;;12.50;7.18;;;;;;;-3.26;60.15;100563.91;4963320;28;20134;-94
2024/01/09 10:15:57;;;;;;;12.00;6.40;;;;;;;-3.37;60.16;100579.94;4966169;29;20043;-94
2024/01/09 10:18:27;;;;;;;12.57;6.78;;;;;;;-3.31;60.02;100587.25;4968139;29;20038;-93
2024/01/09 10:20:55;;;;;;;12.68;6.32;;;;;;;-3.25;58.91;100574.31;4965205;29;20135;-94
2024/01/09 10:23:24;;;;;;;14.18;7.45;;;;;;;-3.34;59.99;100553.28;4968241;28;20034;-94
2024/01/09 10:25:50;;;;;;;13.02;7.22;;;;;;;-3.11;60.32;100583.50;4962663;28;20034;-95
2024/01/09 10:28:21;;;;;;;11.93;6.85;;;;;;;-2.94;60.19;100581.84;4939093;28;20127;-92
2024/01/09 10:30:54;;;;;;;14.45;7.45;;;;;;;-3.09;59.86;100570.19;4944056;29;20138;-93
2024/01/09 10:33:21;;;;;;;11.40;6.47;;;;;;;-3.01;58.12;100572.88;4959282;28;20469;-92
2024/01/09 10:35:54;;;;;;;15.73;7.78;;;;;;;-3.02;58.45;100586.22;4958386;29;20042;-95
2024/01/09 10:38:29;;;;;;;11.77;6.57;;;;;;;-3.26;59.50;100550.75;4943161;29;20054;-93
2024/01/09 10:40:56;;;;;;;16.80;7.03;;;;;;;-3.21;59.66;100584.56;4958590;29;20043;-92
2024/01/09 10:43:26;;;;;;;13.45;7.07;;;;;;;-3.33;59.39;100562.88;4958110;29;20054;-94
2024/01/09 10:46:16;;;;;;;;;;;;;;;;;;;;;
2024/01/09 10:48:52;;;;;;;15.48;6.38;;;;;;;-3.47;59.90;100558.91;4953233;28;20102;-93
2024/01/09 10:51:29;;;;;;;12.30;6.25;;;;;;;-3.43;60.94;100588.41;4985902;28;20034;-94
2024/01/09 10:53:56;;;;;;;16.67;6.28;;;;;;;-3.75;62.52;100574.72;4987298;28;20046;-95
2024/01/09 10:59:43;;;;;;;11.73;6.72;;;;;;;-3.51;61.99;100575.97;5020811;28;20503;-96
2024/01/09 11:05:48;;;;;;;11.18;6.68;;;;;;;-3.52;61.32;100584.88;5008228;28;20105;-90
2024/01/09 11:08:54;;;;;;;11.73;5.82;;;;;;;-3.51;60.58;100575.97;4977673;28;20026;-91
2024/01/09 11:11:53;;;;;;;8.70;5.63;;;;;;;-3.46;60.09;100582.47;4986938;28;20113;-93
2024/01/09 11:14:18;;;;;;;12.20;6.65;;;;;;;-3.50;60.24;100588.19;4995292;28;20041;-93
2024/01/09 11:16:45;;;;;;;12.45;6.60;;;;;;;-3.60;62.34;100598.75;4982445;28;20041;-90
2024/01/09 11:19:14;;;;;;;16.08;7.68;;;;;;;-3.23;61.42;100621.56;4971621;28;20052;-91
2024/01/09 11:25:55;;;;;;;12.60;6.05;;;;;;;-3.73;62.63;100593.84;4959707;29;20104;-95
2024/01/09 11:31:36;;;;;;;17.63;9.50;;;;;;;-3.75;64.19;100592.34;4996679;28;20152;-93
2024/01/09 11:34:08;;;;;;;11.35;6.15;;;;;;;-3.73;62.38;100591.22;4984596;28;20078;-92
2024/01/09 11:36:40;;;;;;;16.75;7.22;;;;;;;-3.59;62.78;100613.59;4975408;28;20096;-92
2024/01/09 11:39:09;;;;;;;13.82;8.25;;;;;;;-3.66;63.39;100623.03;4986463;28;20038;-91
2024/01/09 11:41:40;;;;;;;17.85;8.95;;;;;;;-4.13;62.32;100597.59;4976588;28;20036;-93
2024/01/09 11:44:15;;;;;;;10.23;5.75;;;;;;;-4.00;63.77;100620.13;4967805;28;20177;-93
2024/01/09 11:46:41;;;;;;;13.40;6.75;;;;;;;-3.92;64.41;100614.94;4990353;28;20239;-89
2024/01/09 11:49:20;;;;;;;;;;;;;;;;;;;;;
2024/01/09 11:51:45;;;;;;;10.43;5.90;;;;;;;-3.67;61.62;100642.44;4993164;28;20109;-90
2024/01/09 11:54:14;;;;;;;11.05;5.55;;;;;;;-3.71;61.64;100641.88;4977634;28;20057;-92
2024/01/09 11:56:40;;;;;;;7.95;5.50;;;;;;;-3.93;63.65;100635.16;5015620;28;20030;-90
2024/01/09 11:59:11;;;;;;;9.98;5.82;;;;;;;-4.15;64.61;100611.81;4979752;28;20049;-90
2024/01/09 12:02:05;;;;;;;11.95;5.40;;;;;;;-4.26;63.63;100612.81;4975390;28;20100;-95
2024/01/09 12:04:51;;;;;;;9.57;5.43;;;;;;;-4.17;63.35;100613.78;4994550;28;20034;-92
2024/01/09 12:14:14;;;;;;;9.57;6.15;;;;;;;-4.18;63.45;100644.50;5028167;28;20060;-94
2024/01/09 12:17:27;;;;;;;10.38;4.30;;;;;;;-3.96;63.62;100682.00;5030893;28;20063;-96
2024/01/09 12:23:25;;;;;;;7.15;4.63;;;;;;;-3.93;61.38;100669.38;4991693;28;20110;-96
2024/01/09 12:26:34;;;;;;;7.57;4.63;;;;;;;-4.07;62.82;100678.56;4953168;28;20035;-94
2024/01/09 12:32:27;;;;;;;;;;;;;;;;;;;;;
2024/01/09 12:38:37;;;;;;;11.52;4.25;;;;;;;-4.28;61.92;100677.88;5040094;28;20137;-94
2024/01/09 12:41:12;;;;;;;11.10;3.95;;;;;;;-4.40;61.69;100664.06;5011041;28;20044;-95